Time;durP1;ratioP1;P1;durP2;ratioP2;P2;SDS_P1;SDS_P2;PMS_P1;PMS_P2;Temp;Humidity;BMP_temperature;BMP_pressure;BME280_temperature;BME280_humidity;BME280_pressure;Samples;Min_cycle;Max_cycle;Signal;HPM_P1;HPM_P2
2023/07/16 00:00:58;;;;;;;3.33;3.03;;;;;;;28.38;42.59;101056.50;21077115;28;20032;-78
2023/07/16 00:11:04;;;;;;;3.60;3.28;;;;;;;28.29;42.31;101036.75;21076205;28;20059;-77
2023/07/16 00:21:05;;;;;;;;;;;;;;;28.45;42.36;101056.00;21079180;28;20039;-75
2023/07/16 00:31:07;;;;;;;4.03;3.63;;;;;;;28.40;42.35;101030.84;21075084;28;19969;-77
2023/07/16 00:41:11;;;;;;;3.92;3.53;;;;;;;28.46;42.45;101038.81;21078084;28;20050;-76
2023/07/16 00:51:14;;;;;;;8.30;7.18;;;;;;;28.30;42.46;101021.53;21075627;28;20079;-76
2023/07/16 01:01:15;;;;;;;7.97;6.82;;;;;;;28.45;42.48;101037.13;21074704;28;20028;-77
2023/07/16 01:11:17;;;;;;;6.78;6.18;;;;;;;28.47;42.63;101031.19;21073840;28;20048;-77
2023/07/16 01:21:20;;;;;;;7.50;6.35;;;;;;;28.49;42.63;101037.28;21088301;28;20040;-77
2023/07/16 01:31:22;;;;;;;8.85;6.25;;;;;;;28.47;42.49;101046.09;21087320;28;20449;-75
2023/07/16 01:41:24;;;;;;;6.30;5.20;;;;;;;28.49;42.69;101057.00;21088473;28;20109;-77
2023/07/16 01:51:26;;;;;;;7.90;5.93;;;;;;;28.48;42.36;101055.34;21087019;28;20391;-76
2023/07/16 02:01:30;;;;;;;6.22;5.63;;;;;;;28.48;42.73;101060.97;21085951;28;20083;-76
2023/07/16 02:11:32;;;;;;;6.30;5.20;;;;;;;28.40;42.98;101048.53;21084603;28;20380;-77
2023/07/16 02:21:33;;;;;;;6.43;5.70;;;;;;;28.44;42.68;101051.53;21083505;28;20044;-77
2023/07/16 02:31:36;;;;;;;8.68;5.43;;;;;;;28.48;42.45;101066.59;21081721;28;20097;-78
2023/07/16 02:41:37;;;;;;;5.82;4.55;;;;;;;28.34;42.30;101022.56;21081400;28;20082;-76
2023/07/16 02:51:38;;;;;;;6.60;5.53;;;;;;;28.47;42.11;101039.63;21082875;28;20077;-77
2023/07/16 03:01:40;;;;;;;7.07;5.22;;;;;;;28.50;42.42;101041.75;21081526;28;20032;-76
2023/07/16 03:11:41;;;;;;;6.82;5.07;;;;;;;28.52;42.54;101014.94;21079851;28;20068;-76
2023/07/16 03:21:43;;;;;;;4.82;4.40;;;;;;;28.51;42.34;101007.66;21080087;28;20074;-76
2023/07/16 03:31:44;;;;;;;4.97;4.47;;;;;;;28.42;42.54;101000.38;21079786;28;20020;-76
2023/07/16 03:41:46;;;;;;;6.72;5.28;;;;;;;28.46;42.39;100995.75;21076180;28;20036;-75
2023/07/16 03:51:47;;;;;;;6.35;4.53;;;;;;;28.51;42.59;101007.66;21078145;28;20077;-77
2023/07/16 04:01:48;;;;;;;4.60;4.20;;;;;;;28.48;42.71;100999.06;21077944;28;20020;-78
2023/07/16 04:11:50;;;;;;;6.55;4.80;;;;;;;28.41;42.43;100979.00;21075509;28;20386;-77
2023/07/16 04:21:51;;;;;;;9.35;4.90;;;;;;;28.53;42.54;100987.63;21076907;28;20081;-76
2023/07/16 04:31:52;;;;;;;6.97;4.40;;;;;;;28.50;42.72;100991.09;21076690;28;20031;-78
2023/07/16 04:41:54;;;;;;;5.72;4.75;;;;;;;28.51;42.40;100989.97;21075767;28;20028;-76
2023/07/16 04:51:58;;;;;;;6.55;4.88;;;;;;;28.38;42.10;100957.19;21083795;28;20471;-74
2023/07/16 05:01:59;;;;;;;5.00;3.80;;;;;;;28.34;42.55;100937.28;21091896;28;20024;-77
2023/07/16 05:12:03;;;;;;;5.97;4.15;;;;;;;28.47;42.17;100958.00;21090754;28;20410;-76
2023/07/16 05:22:05;;;;;;;7.40;4.75;;;;;;;28.38;42.24;100924.22;21090006;28;20040;-76
2023/07/16 05:32:07;;;;;;;6.35;4.25;;;;;;;28.50;42.22;100934.78;21089900;28;20024;-77
2023/07/16 05:42:08;;;;;;;6.38;4.55;;;;;;;28.49;42.32;100939.59;21088908;28;20383;-77
2023/07/16 05:52:09;;;;;;;5.95;4.13;;;;;;;28.49;42.62;100936.78;21087196;28;20074;-77
2023/07/16 06:02:11;;;;;;;6.43;4.38;;;;;;;28.49;42.25;100916.25;21084691;28;20445;-76
2023/07/16 06:12:12;;;;;;;4.97;3.78;;;;;;;28.46;42.00;100919.75;21086441;28;20113;-76
2023/07/16 06:22:13;;;;;;;6.40;3.72;;;;;;;28.44;42.00;100914.44;21085984;28;20082;-75
2023/07/16 06:32:15;;;;;;;6.72;3.80;;;;;;;28.39;41.99;100885.66;21084787;28;20040;-76
2023/07/16 06:42:16;;;;;;;8.25;3.97;;;;;;;28.40;41.61;100873.22;21083975;28;20096;-75
2023/07/16 06:52:30;;;;;;;4.85;3.58;;;;;;;28.37;41.54;100852.22;21083393;28;20031;-75
2023/07/16 07:02:32;;;;;;;5.32;3.63;;;;;;;28.37;41.19;100866.28;21084838;28;20035;-75
2023/07/16 07:12:37;;;;;;;6.72;3.65;;;;;;;28.43;41.07;100827.53;21081822;28;20044;-75
2023/07/16 07:22:38;;;;;;;5.60;3.40;;;;;;;28.42;41.45;100792.94;21079773;28;20371;-74
2023/07/16 07:32:42;;;;;;;4.15;3.72;;;;;;;28.44;41.44;100789.78;21080529;28;20028;-77
2023/07/16 07:42:46;;;;;;;4.18;3.40;;;;;;;28.39;41.11;100804.03;21078802;28;20036;-80
2023/07/16 07:52:47;;;;;;;5.25;3.55;;;;;;;28.25;40.81;100799.41;21079577;28;20024;-80
2023/07/16 08:02:49;;;;;;;4.90;3.22;;;;;;;28.37;40.97;100810.00;21078935;28;20028;-78
2023/07/16 08:12:53;;;;;;;5.18;3.80;;;;;;;28.34;40.67;100788.13;21078302;28;20044;-77
2023/07/16 08:22:56;;;;;;;3.40;3.10;;;;;;;28.14;40.42;100764.34;21076856;28;20044;-78
2023/07/16 08:32:57;;;;;;;3.22;2.92;;;;;;;28.19;40.45;100772.59;21077546;28;20086;-79
2023/07/16 08:43:03;;;;;;;4.32;3.13;;;;;;;27.96;40.24;100731.78;21076336;28;20490;-77
2023/07/16 08:53:05;;;;;;;3.63;3.33;;;;;;;28.25;40.14;100754.38;21077864;28;20069;-76
2023/07/16 09:03:07;;;;;;;3.45;2.83;;;;;;;28.22;39.61;100759.84;21077223;28;20043;-76
2023/07/16 09:13:09;;;;;;;2.78;2.47;;;;;;;28.22;39.89;100771.91;21081336;28;20093;-76
2023/07/16 09:23:10;;;;;;;3.97;2.33;;;;;;;28.23;39.71;100773.59;21081657;28;20040;-77
2023/07/16 09:33:15;;;;;;;2.72;2.53;;;;;;;28.26;39.74;100777.72;21074360;28;20032;-77
2023/07/16 09:43:17;;;;;;;3.45;2.55;;;;;;;28.22;39.48;100785.16;21088579;28;20044;-75
2023/07/16 09:53:20;;;;;;;3.17;2.58;;;;;;;28.10;39.53;100783.88;21098892;28;20032;-76
2023/07/16 10:03:24;;;;;;;3.03;2.42;;;;;;;28.20;39.50;100807.19;21105163;28;20437;-75
2023/07/16 10:13:27;;;;;;;2.70;2.50;;;;;;;28.16;39.40;100823.91;21105263;28;20109;-76
2023/07/16 10:23:40;;;;;;;2.75;2.38;;;;;;;28.15;39.49;100841.94;21086374;28;20399;-77
2023/07/16 10:33:41;;;;;;;2.05;1.77;;;;;;;28.16;39.14;100851.22;21085644;28;20082;-75
2023/07/16 10:43:43;;;;;;;2.38;2.03;;;;;;;28.07;39.19;100842.78;21084602;28;20036;-76
2023/07/16 10:53:44;;;;;;;2.70;2.30;;;;;;;28.07;39.10;100849.22;21082424;28;20040;-76
2023/07/16 11:03:46;;;;;;;2.17;1.95;;;;;;;28.06;39.20;100869.25;21081234;28;20032;-77
2023/07/16 11:13:47;;;;;;;2.83;2.10;;;;;;;28.05;39.24;100882.50;21081270;28;20044;-77
2023/07/16 11:23:48;;;;;;;2.58;2.08;;;;;;;28.01;39.09;100853.38;21080622;28;20380;-75
2023/07/16 11:33:50;;;;;;;2.25;2.03;;;;;;;28.11;39.04;100871.91;21079990;28;20028;-77
2023/07/16 11:43:51;;;;;;;2.70;2.10;;;;;;;27.99;38.86;100874.53;21079183;28;20032;-76
2023/07/16 11:53:54;;;;;;;1.77;1.67;;;;;;;28.01;38.89;100872.25;21078649;28;20048;-76
2023/07/16 12:03:55;;;;;;;2.00;1.77;;;;;;;28.02;39.10;100851.38;21077104;28;20109;-76
2023/07/16 12:13:56;;;;;;;1.85;1.75;;;;;;;27.58;38.86;100780.22;21077026;28;20066;-78
2023/07/16 12:24:03;;;;;;;1.48;1.38;;;;;;;28.02;39.27;100842.94;21078335;28;20167;-76
2023/07/16 12:34:05;;;;;;;1.63;1.40;;;;;;;28.03;39.02;100851.06;21078577;28;20040;-77
2023/07/16 12:44:06;;;;;;;1.80;1.67;;;;;;;28.01;38.89;100838.50;21076110;28;20043;-77
2023/07/16 12:54:08;;;;;;;1.83;1.52;;;;;;;28.00;38.70;100853.72;21075374;28;20116;-77
2023/07/16 13:04:09;;;;;;;1.30;1.20;;;;;;;27.74;38.16;100825.59;21075090;28;20039;-78
2023/07/16 13:14:11;;;;;;;1.60;1.50;;;;;;;27.99;38.60;100846.41;21083906;28;20044;-76
2023/07/16 13:24:12;;;;;;;1.70;1.60;;;;;;;27.99;38.69;100819.13;21091885;28;20032;-77
2023/07/16 13:34:13;;;;;;;2.20;1.45;;;;;;;28.01;38.50;100816.00;21090906;28;20040;-76
2023/07/16 13:44:16;;;;;;;2.28;1.67;;;;;;;27.97;38.27;100820.63;21091105;28;20032;-76
2023/07/16 13:54:18;;;;;;;2.17;1.60;;;;;;;27.98;38.27;100822.28;21089462;28;20028;-75
2023/07/16 14:04:19;;;;;;;1.38;1.27;;;;;;;27.89;38.52;100818.63;21088097;28;20031;-76
2023/07/16 14:14:22;;;;;;;1.55;1.45;;;;;;;27.91;38.35;100821.97;21087302;28;20480;-78
2023/07/16 14:24:24;;;;;;;1.63;1.52;;;;;;;27.93;38.09;100826.09;21088882;28;20032;-82
2023/07/16 14:34:37;;;;;;;1.40;1.30;;;;;;;27.88;38.47;100845.94;21086939;28;20036;-80
2023/07/16 14:44:42;;;;;;;1.30;1.20;;;;;;;27.89;38.23;100858.84;21088347;28;20062;-80
2023/07/16 14:54:43;;;;;;;1.90;1.30;;;;;;;27.84;38.06;100834.50;21087303;28;20039;-82
2023/07/16 15:04:48;;;;;;;1.80;1.70;;;;;;;27.83;37.90;100866.63;21086939;28;20032;-81
2023/07/16 15:14:49;;;;;;;1.20;1.10;;;;;;;27.82;38.09;100873.41;21084146;28;20044;-81
2023/07/16 15:24:50;;;;;;;1.23;1.13;;;;;;;27.83;38.66;100868.59;21084086;28;20112;-81
2023/07/16 15:34:51;;;;;;;1.20;1.05;;;;;;;27.83;38.71;100872.25;21083036;28;20035;-80
2023/07/16 15:44:53;;;;;;;0.98;0.93;;;;;;;27.81;38.47;100868.94;21082321;28;20043;-81
2023/07/16 15:54:54;;;;;;;1.08;0.90;;;;;;;27.49;38.12;100836.47;21080344;28;20109;-81
2023/07/16 16:04:57;;;;;;;1.50;1.40;;;;;;;27.78;38.11;100863.97;21098730;28;20024;-81
2023/07/16 16:14:58;;;;;;;1.75;1.40;;;;;;;27.78;38.08;100855.53;21079968;28;20371;-78
2023/07/16 16:25:05;;;;;;;1.50;1.20;;;;;;;27.76;38.25;100855.00;21079607;28;20105;-78
2023/07/16 16:35:09;;;;;;;1.20;1.10;;;;;;;27.76;38.40;100855.00;21078659;28;20036;-78
2023/07/16 16:45:15;;;;;;;1.55;1.20;;;;;;;27.76;38.21;100849.41;21082362;28;20040;-78
2023/07/16 16:55:16;;;;;;;1.50;1.30;;;;;;;27.74;38.04;100834.84;21094994;28;20032;-77
2023/07/16 17:05:17;;;;;;;1.38;1.27;;;;;;;27.60;37.95;100806.03;21094291;28;20475;-77
2023/07/16 17:15:19;;;;;;;1.52;1.23;;;;;;;27.52;37.87;100809.66;21093141;28;20113;-77
2023/07/16 17:25:23;;;;;;;1.38;0.98;;;;;;;27.65;38.24;100797.44;21092786;28;20522;-77
2023/07/16 17:35:27;;;;;;;1.38;1.27;;;;;;;27.73;38.24;100799.47;21092852;28;20395;-76
2023/07/16 17:45:28;;;;;;;1.58;1.13;;;;;;;27.49;38.03;100731.63;21090482;28;20044;-76
2023/07/16 17:55:30;;;;;;;1.10;1.00;;;;;;;27.70;38.15;100777.59;21091010;28;20040;-76
2023/07/16 18:05:34;;;;;;;1.17;1.08;;;;;;;27.70;38.12;100797.28;21090662;28;20044;-76
2023/07/16 18:15:37;;;;;;;1.40;0.98;;;;;;;27.58;38.07;100781.09;21139508;28;20073;-79
2023/07/16 18:25:38;;;;;;;1.30;1.20;;;;;;;27.52;38.10;100787.19;21179897;28;20511;-78
2023/07/16 18:35:45;;;;;;;1.40;1.30;;;;;;;27.68;38.13;100802.41;21093873;28;20032;-75
2023/07/16 18:45:49;;;;;;;1.37;1.17;;;;;;;27.66;38.12;100824.41;21086312;28;20044;-75
2023/07/16 18:55:53;;;;;;;1.80;1.35;;;;;;;27.47;38.40;100784.53;21085153;28;20269;-73
2023/07/16 19:05:58;;;;;;;1.30;1.10;;;;;;;27.42;38.20;100745.38;21084831;28;20053;-76
2023/07/16 19:15:59;;;;;;;1.45;1.27;;;;;;;27.55;38.55;100752.81;21084578;28;20070;-76
2023/07/16 19:26:01;;;;;;;1.45;1.35;;;;;;;27.53;38.52;100710.13;21083295;28;20040;-76
2023/07/16 19:36:02;;;;;;;1.20;1.10;;;;;;;27.61;38.47;100720.56;21081942;28;20029;-74
2023/07/16 19:46:07;;;;;;;1.55;1.45;;;;;;;27.63;38.39;100721.06;21081510;28;20051;-74
2023/07/16 19:56:08;;;;;;;1.30;1.20;;;;;;;27.60;38.27;100711.31;21080564;28;20032;-73
2023/07/16 20:06:10;;;;;;;1.73;1.30;;;;;;;27.55;38.54;100690.97;21079825;28;20043;-73
2023/07/16 20:16:11;;;;;;;1.25;1.00;;;;;;;27.61;38.53;100679.22;21078530;28;20044;-74
2023/07/16 20:26:12;;;;;;;1.15;1.05;;;;;;;27.44;38.68;100712.13;21077487;28;20052;-72
2023/07/16 20:36:14;;;;;;;1.75;1.17;;;;;;;27.58;38.65;100744.53;21078615;28;20120;-73
2023/07/16 20:46:16;;;;;;;1.30;1.08;;;;;;;27.59;38.69;100751.81;21077829;28;20394;-74
2023/07/16 20:56:17;;;;;;;1.40;1.30;;;;;;;27.52;38.89;100759.91;21080013;28;20036;-75
2023/07/16 21:06:18;;;;;;;1.40;1.23;;;;;;;27.58;38.73;100758.59;21077272;28;20032;-74
2023/07/16 21:16:20;;;;;;;1.20;1.10;;;;;;;27.51;38.28;100760.25;21076736;28;20097;-74
2023/07/16 21:26:21;;;;;;;1.27;1.05;;;;;;;27.52;38.32;100767.50;21075733;28;20109;-73
2023/07/16 21:36:22;;;;;;;0.93;0.90;;;;;;;27.53;38.64;100766.34;21086444;28;20024;-74
2023/07/16 21:46:24;;;;;;;1.33;1.20;;;;;;;27.56;38.63;100774.13;21090797;28;20048;-74
2023/07/16 21:56:25;;;;;;;1.00;0.95;;;;;;;27.52;38.60;100736.59;21088216;28;20480;-73
2023/07/16 22:06:26;;;;;;;1.00;0.90;;;;;;;27.47;38.65;100723.53;21087173;28;20101;-72
2023/07/16 22:16:29;;;;;;;1.27;1.17;;;;;;;27.48;38.95;100708.31;21086066;28;20044;-74
2023/07/16 22:26:32;;;;;;;1.10;1.00;;;;;;;27.06;38.97;100656.56;21086454;28;20027;-72
2023/07/16 22:36:33;;;;;;;1.45;1.05;;;;;;;27.43;38.95;100735.78;21085568;28;20032;-73
2023/07/16 22:46:34;;;;;;;1.45;1.30;;;;;;;27.49;38.94;100766.22;21084421;28;20036;-73
2023/07/16 22:56:36;;;;;;;1.63;1.33;;;;;;;27.47;38.95;100756.44;21084181;28;20043;-74
2023/07/16 23:06:37;;;;;;;1.50;1.30;;;;;;;27.47;38.83;100768.50;21083410;28;20101;-73
2023/07/16 23:16:38;;;;;;;1.40;1.30;;;;;;;27.45;38.62;100787.69;21082369;28;20044;-72
2023/07/16 23:26:40;;;;;;;1.45;1.35;;;;;;;27.48;38.91;100800.25;21081679;28;20089;-73
2023/07/16 23:36:41;;;;;;;1.20;1.10;;;;;;;27.42;38.98;100790.31;21080552;28;20483;-73
2023/07/16 23:46:43;;;;;;;1.25;1.05;;;;;;;27.45;38.95;100801.75;21078466;28;20040;-73
2023/07/16 23:56:44;;;;;;;1.10;1.10;;;;;;;27.45;38.91;100806.53;21077738;28;20036;-74
